sensor_id;sensor_type;location;lat;lon;timestamp;temperature;humidity
10129;DHT22;5104;50.720;7.044;2024-01-16T00:01:59;1.70;99.90
10129;DHT22;5104;50.720;7.044;2024-01-16T00:04:26;1.70;99.90
10129;DHT22;5104;50.720;7.044;2024-01-16T00:06:56;1.70;99.90
10129;DHT22;5104;50.720;7.044;2024-01-16T00:09:23;1.70;99.90
10129;DHT22;5104;50.720;7.044;2024-01-16T00:11:50;1.70;99.90
10129;DHT22;5104;50.720;7.044;2024-01-16T00:14:17;1.70;99.90
10129;DHT22;5104;50.720;7.044;2024-01-16T00:16:45;1.70;99.90
10129;DHT22;5104;50.720;7.044;2024-01-16T00:19:12;1.70;99.90
10129;DHT22;5104;50.720;7.044;2024-01-16T00:21:39;1.80;99.90
10129;DHT22;5104;50.720;7.044;2024-01-16T00:24:08;1.80;99.90
10129;DHT22;5104;50.720;7.044;2024-01-16T00:26:35;1.80;95.50
10129;DHT22;5104;50.720;7.044;2024-01-16T00:29:02;1.80;95.20
10129;DHT22;5104;50.720;7.044;2024-01-16T00:31:29;1.80;94.10
10129;DHT22;5104;50.720;7.044;2024-01-16T00:33:56;1.80;99.90
10129;DHT22;5104;50.720;7.044;2024-01-16T00:36:23;1.80;99.90
10129;DHT22;5104;50.720;7.044;2024-01-16T00:38:50;1.80;99.90
10129;DHT22;5104;50.720;7.044;2024-01-16T00:41:18;1.80;99.90
10129;DHT22;5104;50.720;7.044;2024-01-16T00:43:45;1.80;99.90
10129;DHT22;5104;50.720;7.044;2024-01-16T00:46:12;1.70;1.00
10129;DHT22;5104;50.720;7.044;2024-01-16T00:48:38;1.70;99.90
10129;DHT22;5104;50.720;7.044;2024-01-16T00:51:05;1.70;99.90
10129;DHT22;5104;50.720;7.044;2024-01-16T00:53:32;1.70;99.90
10129;DHT22;5104;50.720;7.044;2024-01-16T00:56:01;1.70;99.90
10129;DHT22;5104;50.720;7.044;2024-01-16T00:58:30;1.70;28.90
10129;DHT22;5104;50.720;7.044;2024-01-16T01:00:57;1.70;1.00
10129;DHT22;5104;50.720;7.044;2024-01-16T01:03:24;1.70;1.00
10129;DHT22;5104;50.720;7.044;2024-01-16T01:05:51;1.70;1.00
10129;DHT22;5104;50.720;7.044;2024-01-16T01:08:19;1.70;1.00
10129;DHT22;5104;50.720;7.044;2024-01-16T01:10:46;1.80;1.00
10129;DHT22;5104;50.720;7.044;2024-01-16T01:13:13;1.70;1.00
10129;DHT22;5104;50.720;7.044;2024-01-16T01:15:41;1.70;1.00
10129;DHT22;5104;50.720;7.044;2024-01-16T01:18:08;1.70;1.00
10129;DHT22;5104;50.720;7.044;2024-01-16T01:20:35;1.70;1.00
10129;DHT22;5104;50.720;7.044;2024-01-16T01:23:02;1.70;1.00
10129;DHT22;5104;50.720;7.044;2024-01-16T01:25:29;1.70;1.00
10129;DHT22;5104;50.720;7.044;2024-01-16T01:27:56;1.70;1.00
10129;DHT22;5104;50.720;7.044;2024-01-16T01:30:23;1.70;1.00
10129;DHT22;5104;50.720;7.044;2024-01-16T01:32:53;1.70;1.00
10129;DHT22;5104;50.720;7.044;2024-01-16T01:35:19;1.70;1.00
10129;DHT22;5104;50.720;7.044;2024-01-16T01:37:46;1.70;1.00
10129;DHT22;5104;50.720;7.044;2024-01-16T01:40:14;1.70;1.00
10129;DHT22;5104;50.720;7.044;2024-01-16T01:42:41;1.70;1.00
10129;DHT22;5104;50.720;7.044;2024-01-16T01:45:09;1.70;1.00
10129;DHT22;5104;50.720;7.044;2024-01-16T01:47:36;1.70;99.90
10129;DHT22;5104;50.720;7.044;2024-01-16T01:50:06;1.70;99.90
10129;DHT22;5104;50.720;7.044;2024-01-16T01:52:35;1.70;99.90
10129;DHT22;5104;50.720;7.044;2024-01-16T01:55:03;1.70;99.90
10129;DHT22;5104;50.720;7.044;2024-01-16T01:57:33;1.70;99.90
10129;DHT22;5104;50.720;7.044;2024-01-16T02:00:00;1.70;99.90
10129;DHT22;5104;50.720;7.044;2024-01-16T02:02:28;1.80;1.00
10129;DHT22;5104;50.720;7.044;2024-01-16T02:04:55;1.80;1.00
10129;DHT22;5104;50.720;7.044;2024-01-16T02:07:25;1.80;1.00
10129;DHT22;5104;50.720;7.044;2024-01-16T02:09:52;1.70;1.00
10129;DHT22;5104;50.720;7.044;2024-01-16T02:12:19;1.60;99.90
10129;DHT22;5104;50.720;7.044;2024-01-16T02:14:46;1.60;1.00
10129;DHT22;5104;50.720;7.044;2024-01-16T02:17:13;1.50;99.90
10129;DHT22;5104;50.720;7.044;2024-01-16T02:19:39;1.40;1.00
10129;DHT22;5104;50.720;7.044;2024-01-16T02:22:09;1.30;99.90
10129;DHT22;5104;50.720;7.044;2024-01-16T02:24:42;1.30;1.00
10129;DHT22;5104;50.720;7.044;2024-01-16T02:27:09;1.30;1.00
10129;DHT22;5104;50.720;7.044;2024-01-16T02:29:40;1.30;1.00
10129;DHT22;5104;50.720;7.044;2024-01-16T02:32:08;1.30;1.00
10129;DHT22;5104;50.720;7.044;2024-01-16T02:34:35;1.20;75.10
10129;DHT22;5104;50.720;7.044;2024-01-16T02:37:02;1.20;99.90
10129;DHT22;5104;50.720;7.044;2024-01-16T02:39:29;1.20;99.90
10129;DHT22;5104;50.720;7.044;2024-01-16T02:41:58;1.20;99.90
10129;DHT22;5104;50.720;7.044;2024-01-16T02:44:25;1.20;99.90
10129;DHT22;5104;50.720;7.044;2024-01-16T02:46:52;1.20;1.00
10129;DHT22;5104;50.720;7.044;2024-01-16T02:49:19;1.30;1.00
10129;DHT22;5104;50.720;7.044;2024-01-16T02:51:46;1.30;1.00
10129;DHT22;5104;50.720;7.044;2024-01-16T02:54:14;1.30;99.90
10129;DHT22;5104;50.720;7.044;2024-01-16T02:56:41;1.30;65.00
10129;DHT22;5104;50.720;7.044;2024-01-16T02:59:09;1.30;1.00
10129;DHT22;5104;50.720;7.044;2024-01-16T03:01:37;1.40;1.00
10129;DHT22;5104;50.720;7.044;2024-01-16T03:04:04;1.40;99.90
10129;DHT22;5104;50.720;7.044;2024-01-16T03:06:31;1.40;99.90
10129;DHT22;5104;50.720;7.044;2024-01-16T03:08:58;1.40;1.00
10129;DHT22;5104;50.720;7.044;2024-01-16T03:11:25;1.50;1.00
10129;DHT22;5104;50.720;7.044;2024-01-16T03:13:52;1.50;1.00
10129;DHT22;5104;50.720;7.044;2024-01-16T03:16:20;1.50;1.00
10129;DHT22;5104;50.720;7.044;2024-01-16T03:18:47;1.40;1.00
10129;DHT22;5104;50.720;7.044;2024-01-16T03:21:14;1.50;1.00
10129;DHT22;5104;50.720;7.044;2024-01-16T03:23:41;1.50;1.00
10129;DHT22;5104;50.720;7.044;2024-01-16T03:26:12;1.50;1.00
10129;DHT22;5104;50.720;7.044;2024-01-16T03:28:40;1.50;99.90
10129;DHT22;5104;50.720;7.044;2024-01-16T03:31:07;1.60;99.90
10129;DHT22;5104;50.720;7.044;2024-01-16T03:33:35;1.60;93.00
10129;DHT22;5104;50.720;7.044;2024-01-16T03:36:07;1.60;10.00
10129;DHT22;5104;50.720;7.044;2024-01-16T03:38:34;1.60;1.00
10129;DHT22;5104;50.720;7.044;2024-01-16T03:41:02;1.60;58.50
10129;DHT22;5104;50.720;7.044;2024-01-16T03:43:32;1.60;71.40
10129;DHT22;5104;50.720;7.044;2024-01-16T03:45:59;1.60;49.40
10129;DHT22;5104;50.720;7.044;2024-01-16T03:48:26;1.60;99.90
10129;DHT22;5104;50.720;7.044;2024-01-16T03:50:54;1.50;99.90
10129;DHT22;5104;50.720;7.044;2024-01-16T03:53:22;1.50;1.00
10129;DHT22;5104;50.720;7.044;2024-01-16T03:55:51;1.50;1.00
10129;DHT22;5104;50.720;7.044;2024-01-16T03:58:18;1.40;1.00
10129;DHT22;5104;50.720;7.044;2024-01-16T04:00:45;1.40;5.50
10129;DHT22;5104;50.720;7.044;2024-01-16T04:03:12;1.40;99.90
10129;DHT22;5104;50.720;7.044;2024-01-16T04:05:41;1.40;1.00
10129;DHT22;5104;50.720;7.044;2024-01-16T04:08:09;1.30;1.00
10129;DHT22;5104;50.720;7.044;2024-01-16T04:10:38;1.30;1.00
10129;DHT22;5104;50.720;7.044;2024-01-16T04:13:04;1.30;90.30
10129;DHT22;5104;50.720;7.044;2024-01-16T04:15:32;1.30;75.30
10129;DHT22;5104;50.720;7.044;2024-01-16T04:17:59;1.20;99.90
10129;DHT22;5104;50.720;7.044;2024-01-16T04:20:26;1.20;1.00
10129;DHT22;5104;50.720;7.044;2024-01-16T04:22:53;1.20;1.00
10129;DHT22;5104;50.720;7.044;2024-01-16T04:25:21;1.20;1.00
10129;DHT22;5104;50.720;7.044;2024-01-16T04:27:48;1.10;1.00
10129;DHT22;5104;50.720;7.044;2024-01-16T04:30:16;1.20;99.90
10129;DHT22;5104;50.720;7.044;2024-01-16T04:32:45;1.10;99.90
10129;DHT22;5104;50.720;7.044;2024-01-16T04:35:12;1.20;76.40
10129;DHT22;5104;50.720;7.044;2024-01-16T04:37:40;1.20;52.60
10129;DHT22;5104;50.720;7.044;2024-01-16T04:40:08;1.20;1.00
10129;DHT22;5104;50.720;7.044;2024-01-16T04:42:36;1.20;1.00
10129;DHT22;5104;50.720;7.044;2024-01-16T04:45:04;1.20;1.00
10129;DHT22;5104;50.720;7.044;2024-01-16T04:47:31;1.10;1.00
10129;DHT22;5104;50.720;7.044;2024-01-16T04:49:58;1.10;1.00
10129;DHT22;5104;50.720;7.044;2024-01-16T04:52:25;1.10;1.00
10129;DHT22;5104;50.720;7.044;2024-01-16T04:54:53;1.10;1.00
10129;DHT22;5104;50.720;7.044;2024-01-16T04:57:20;1.20;1.00
10129;DHT22;5104;50.720;7.044;2024-01-16T04:59:48;1.10;1.00
10129;DHT22;5104;50.720;7.044;2024-01-16T05:02:15;1.20;1.00
10129;DHT22;5104;50.720;7.044;2024-01-16T05:04:42;1.10;99.90
10129;DHT22;5104;50.720;7.044;2024-01-16T05:07:09;1.10;99.90
10129;DHT22;5104;50.720;7.044;2024-01-16T05:09:36;1.10;99.90
10129;DHT22;5104;50.720;7.044;2024-01-16T05:12:04;1.10;45.10
10129;DHT22;5104;50.720;7.044;2024-01-16T05:14:31;1.10;1.00
10129;DHT22;5104;50.720;7.044;2024-01-16T05:16:59;1.10;1.00
10129;DHT22;5104;50.720;7.044;2024-01-16T05:19:26;1.10;1.00
10129;DHT22;5104;50.720;7.044;2024-01-16T05:21:53;1.10;1.00
10129;DHT22;5104;50.720;7.044;2024-01-16T05:24:20;1.10;1.00
10129;DHT22;5104;50.720;7.044;2024-01-16T05:26:47;1.10;1.00
10129;DHT22;5104;50.720;7.044;2024-01-16T05:29:14;1.10;1.00
10129;DHT22;5104;50.720;7.044;2024-01-16T05:31:41;1.20;1.00
10129;DHT22;5104;50.720;7.044;2024-01-16T05:34:10;1.20;1.00
10129;DHT22;5104;50.720;7.044;2024-01-16T05:36:37;1.20;1.00
10129;DHT22;5104;50.720;7.044;2024-01-16T05:39:04;1.20;99.90
10129;DHT22;5104;50.720;7.044;2024-01-16T05:41:33;1.20;99.90
10129;DHT22;5104;50.720;7.044;2024-01-16T05:44:00;1.20;99.90
10129;DHT22;5104;50.720;7.044;2024-01-16T05:46:29;1.20;3.40
10129;DHT22;5104;50.720;7.044;2024-01-16T05:48:56;1.20;1.00
10129;DHT22;5104;50.720;7.044;2024-01-16T05:51:26;1.20;1.00
10129;DHT22;5104;50.720;7.044;2024-01-16T05:53:53;1.20;1.00
10129;DHT22;5104;50.720;7.044;2024-01-16T05:56:20;1.20;1.00
10129;DHT22;5104;50.720;7.044;2024-01-16T05:58:47;1.20;1.00
10129;DHT22;5104;50.720;7.044;2024-01-16T06:01:14;1.20;1.00
10129;DHT22;5104;50.720;7.044;2024-01-16T06:03:41;1.20;99.90
10129;DHT22;5104;50.720;7.044;2024-01-16T06:06:11;1.20;99.90
10129;DHT22;5104;50.720;7.044;2024-01-16T06:08:44;1.20;99.90
10129;DHT22;5104;50.720;7.044;2024-01-16T06:11:11;1.20;86.20
10129;DHT22;5104;50.720;7.044;2024-01-16T06:13:38;1.30;1.00
10129;DHT22;5104;50.720;7.044;2024-01-16T06:16:06;1.30;1.00
10129;DHT22;5104;50.720;7.044;2024-01-16T06:18:33;1.30;1.00
10129;DHT22;5104;50.720;7.044;2024-01-16T06:21:01;1.30;1.00
10129;DHT22;5104;50.720;7.044;2024-01-16T06:23:28;1.30;1.00
10129;DHT22;5104;50.720;7.044;2024-01-16T06:25:56;1.20;1.00
10129;DHT22;5104;50.720;7.044;2024-01-16T06:28:23;1.20;1.00
10129;DHT22;5104;50.720;7.044;2024-01-16T06:30:50;1.20;1.00
10129;DHT22;5104;50.720;7.044;2024-01-16T06:33:19;1.20;1.00
10129;DHT22;5104;50.720;7.044;2024-01-16T06:35:45;1.20;1.00
10129;DHT22;5104;50.720;7.044;2024-01-16T06:38:12;1.20;99.90
10129;DHT22;5104;50.720;7.044;2024-01-16T06:40:39;1.20;99.90
10129;DHT22;5104;50.720;7.044;2024-01-16T06:43:08;1.20;99.90
10129;DHT22;5104;50.720;7.044;2024-01-16T06:45:36;1.20;99.90
10129;DHT22;5104;50.720;7.044;2024-01-16T06:48:04;1.20;33.90
10129;DHT22;5104;50.720;7.044;2024-01-16T06:50:31;1.20;13.00
10129;DHT22;5104;50.720;7.044;2024-01-16T06:52:58;1.30;1.00
10129;DHT22;5104;50.720;7.044;2024-01-16T06:55:25;1.30;1.00
10129;DHT22;5104;50.720;7.044;2024-01-16T06:57:52;1.30;1.00
10129;DHT22;5104;50.720;7.044;2024-01-16T07:00:20;1.30;1.00
10129;DHT22;5104;50.720;7.044;2024-01-16T07:02:48;1.30;1.00
10129;DHT22;5104;50.720;7.044;2024-01-16T07:05:16;1.30;1.00
10129;DHT22;5104;50.720;7.044;2024-01-16T07:07:43;1.30;1.00
10129;DHT22;5104;50.720;7.044;2024-01-16T07:10:11;1.30;1.00
10129;DHT22;5104;50.720;7.044;2024-01-16T07:12:43;1.30;1.00
10129;DHT22;5104;50.720;7.044;2024-01-16T07:15:10;1.30;1.00
10129;DHT22;5104;50.720;7.044;2024-01-16T07:17:39;1.20;1.00
10129;DHT22;5104;50.720;7.044;2024-01-16T07:20:06;1.20;1.00
10129;DHT22;5104;50.720;7.044;2024-01-16T07:22:34;1.10;1.00
10129;DHT22;5104;50.720;7.044;2024-01-16T07:25:01;1.10;1.00
10129;DHT22;5104;50.720;7.044;2024-01-16T07:27:28;1.10;1.00
10129;DHT22;5104;50.720;7.044;2024-01-16T07:29:55;1.00;1.00
10129;DHT22;5104;50.720;7.044;2024-01-16T07:32:22;1.00;1.00
10129;DHT22;5104;50.720;7.044;2024-01-16T07:34:50;1.00;1.00
10129;DHT22;5104;50.720;7.044;2024-01-16T07:37:18;0.90;1.00
10129;DHT22;5104;50.720;7.044;2024-01-16T07:39:45;0.90;1.00
10129;DHT22;5104;50.720;7.044;2024-01-16T07:42:12;0.90;1.00
10129;DHT22;5104;50.720;7.044;2024-01-16T07:44:39;0.90;1.00
10129;DHT22;5104;50.720;7.044;2024-01-16T07:47:06;0.90;1.00
10129;DHT22;5104;50.720;7.044;2024-01-16T07:49:33;0.80;99.90
10129;DHT22;5104;50.720;7.044;2024-01-16T07:52:02;0.80;99.90
10129;DHT22;5104;50.720;7.044;2024-01-16T07:54:28;0.80;99.90
10129;DHT22;5104;50.720;7.044;2024-01-16T07:56:56;0.80;99.90
10129;DHT22;5104;50.720;7.044;2024-01-16T07:59:23;0.70;1.00
10129;DHT22;5104;50.720;7.044;2024-01-16T08:01:52;0.70;99.90
10129;DHT22;5104;50.720;7.044;2024-01-16T08:04:19;0.70;1.00
10129;DHT22;5104;50.720;7.044;2024-01-16T08:06:46;0.70;1.00
10129;DHT22;5104;50.720;7.044;2024-01-16T08:09:14;0.70;1.00
10129;DHT22;5104;50.720;7.044;2024-01-16T08:11:41;0.70;1.00
10129;DHT22;5104;50.720;7.044;2024-01-16T08:14:08;0.70;99.90
10129;DHT22;5104;50.720;7.044;2024-01-16T08:16:35;0.70;1.00
10129;DHT22;5104;50.720;7.044;2024-01-16T08:19:02;0.70;99.90
10129;DHT22;5104;50.720;7.044;2024-01-16T08:21:29;0.70;1.00
10129;DHT22;5104;50.720;7.044;2024-01-16T08:23:56;0.70;1.00
10129;DHT22;5104;50.720;7.044;2024-01-16T08:26:25;0.70;99.90
10129;DHT22;5104;50.720;7.044;2024-01-16T08:28:52;0.70;99.90
10129;DHT22;5104;50.720;7.044;2024-01-16T08:31:19;0.70;99.90
10129;DHT22;5104;50.720;7.044;2024-01-16T08:33:46;0.70;99.90
10129;DHT22;5104;50.720;7.044;2024-01-16T08:36:14;0.70;99.90
10129;DHT22;5104;50.720;7.044;2024-01-16T08:38:41;0.70;99.90
10129;DHT22;5104;50.720;7.044;2024-01-16T08:41:08;0.70;99.90
10129;DHT22;5104;50.720;7.044;2024-01-16T08:43:36;0.70;99.90
10129;DHT22;5104;50.720;7.044;2024-01-16T08:46:03;0.80;99.90
10129;DHT22;5104;50.720;7.044;2024-01-16T08:48:30;0.90;99.90
10129;DHT22;5104;50.720;7.044;2024-01-16T08:50:57;1.00;99.90
10129;DHT22;5104;50.720;7.044;2024-01-16T08:53:24;1.10;99.90
10129;DHT22;5104;50.720;7.044;2024-01-16T08:55:51;1.20;99.90
10129;DHT22;5104;50.720;7.044;2024-01-16T08:58:18;1.20;99.90
10129;DHT22;5104;50.720;7.044;2024-01-16T09:00:46;1.20;1.00
10129;DHT22;5104;50.720;7.044;2024-01-16T09:03:13;1.20;99.90
10129;DHT22;5104;50.720;7.044;2024-01-16T09:05:40;1.30;39.00
10129;DHT22;5104;50.720;7.044;2024-01-16T09:08:08;1.30;1.00
10129;DHT22;5104;50.720;7.044;2024-01-16T09:10:35;1.30;74.70
10129;DHT22;5104;50.720;7.044;2024-01-16T09:13:03;1.40;99.90
10129;DHT22;5104;50.720;7.044;2024-01-16T09:15:30;1.40;28.10
10129;DHT22;5104;50.720;7.044;2024-01-16T09:17:58;1.50;1.00
10129;DHT22;5104;50.720;7.044;2024-01-16T09:20:25;1.50;1.00
10129;DHT22;5104;50.720;7.044;2024-01-16T09:22:55;1.60;1.00
10129;DHT22;5104;50.720;7.044;2024-01-16T09:25:22;1.50;1.00
10129;DHT22;5104;50.720;7.044;2024-01-16T09:27:50;1.60;1.00
10129;DHT22;5104;50.720;7.044;2024-01-16T09:30:18;1.70;1.00
10129;DHT22;5104;50.720;7.044;2024-01-16T09:32:47;1.90;1.00
10129;DHT22;5104;50.720;7.044;2024-01-16T09:35:15;1.90;1.00
10129;DHT22;5104;50.720;7.044;2024-01-16T09:37:43;2.00;1.00
10129;DHT22;5104;50.720;7.044;2024-01-16T09:40:11;2.20;1.00
10129;DHT22;5104;50.720;7.044;2024-01-16T09:42:39;2.20;1.00
10129;DHT22;5104;50.720;7.044;2024-01-16T09:45:09;2.30;1.00
10129;DHT22;5104;50.720;7.044;2024-01-16T09:47:37;2.20;1.00
10129;DHT22;5104;50.720;7.044;2024-01-16T09:50:06;2.30;1.00
10129;DHT22;5104;50.720;7.044;2024-01-16T09:52:35;2.40;1.00
10129;DHT22;5104;50.720;7.044;2024-01-16T09:55:02;2.40;1.00
10129;DHT22;5104;50.720;7.044;2024-01-16T09:57:30;2.50;1.00
10129;DHT22;5104;50.720;7.044;2024-01-16T10:00:00;2.60;1.00
10129;DHT22;5104;50.720;7.044;2024-01-16T10:02:29;2.90;1.00
10129;DHT22;5104;50.720;7.044;2024-01-16T10:04:56;3.10;1.00
10129;DHT22;5104;50.720;7.044;2024-01-16T10:07:24;3.20;1.00
10129;DHT22;5104;50.720;7.044;2024-01-16T10:09:57;3.20;1.00
10129;DHT22;5104;50.720;7.044;2024-01-16T10:12:25;3.20;1.00
10129;DHT22;5104;50.720;7.044;2024-01-16T10:14:53;3.00;1.00
10129;DHT22;5104;50.720;7.044;2024-01-16T10:17:20;2.90;1.00
10129;DHT22;5104;50.720;7.044;2024-01-16T10:19:49;2.80;1.00
10129;DHT22;5104;50.720;7.044;2024-01-16T10:22:19;3.00;1.00
10129;DHT22;5104;50.720;7.044;2024-01-16T10:24:47;2.90;1.00
10129;DHT22;5104;50.720;7.044;2024-01-16T10:27:16;3.10;1.00
10129;DHT22;5104;50.720;7.044;2024-01-16T10:29:55;3.00;1.00
10129;DHT22;5104;50.720;7.044;2024-01-16T10:32:27;3.00;1.00
10129;DHT22;5104;50.720;7.044;2024-01-16T10:35:02;2.90;1.00
10129;DHT22;5104;50.720;7.044;2024-01-16T10:37:30;3.00;1.00
10129;DHT22;5104;50.720;7.044;2024-01-16T10:39:57;3.00;1.00
10129;DHT22;5104;50.720;7.044;2024-01-16T10:42:26;3.10;1.00
10129;DHT22;5104;50.720;7.044;2024-01-16T10:44:53;3.10;1.00
10129;DHT22;5104;50.720;7.044;2024-01-16T10:47:21;3.20;1.00
10129;DHT22;5104;50.720;7.044;2024-01-16T10:49:49;3.30;1.00
10129;DHT22;5104;50.720;7.044;2024-01-16T10:52:17;3.20;1.00
10129;DHT22;5104;50.720;7.044;2024-01-16T10:54:46;3.10;1.00
10129;DHT22;5104;50.720;7.044;2024-01-16T10:57:16;3.10;1.00
10129;DHT22;5104;50.720;7.044;2024-01-16T10:59:50;3.20;1.00
10129;DHT22;5104;50.720;7.044;2024-01-16T11:02:20;3.20;1.00
10129;DHT22;5104;50.720;7.044;2024-01-16T11:04:53;3.00;1.00
10129;DHT22;5104;50.720;7.044;2024-01-16T11:07:21;2.90;1.00
10129;DHT22;5104;50.720;7.044;2024-01-16T11:09:50;3.00;1.00
10129;DHT22;5104;50.720;7.044;2024-01-16T11:12:17;2.90;1.00
10129;DHT22;5104;50.720;7.044;2024-01-16T11:14:52;2.90;1.00
10129;DHT22;5104;50.720;7.044;2024-01-16T11:17:19;2.90;1.00
10129;DHT22;5104;50.720;7.044;2024-01-16T11:19:47;2.90;1.00
10129;DHT22;5104;50.720;7.044;2024-01-16T11:22:16;2.90;1.00
10129;DHT22;5104;50.720;7.044;2024-01-16T11:24:43;2.80;1.00
10129;DHT22;5104;50.720;7.044;2024-01-16T11:27:22;2.70;1.00
10129;DHT22;5104;50.720;7.044;2024-01-16T11:29:51;2.90;1.00
10129;DHT22;5104;50.720;7.044;2024-01-16T11:32:34;3.10;1.00
10129;DHT22;5104;50.720;7.044;2024-01-16T11:35:03;3.20;1.00
10129;DHT22;5104;50.720;7.044;2024-01-16T11:37:30;3.30;1.00
10129;DHT22;5104;50.720;7.044;2024-01-16T11:40:20;3.30;1.00
10129;DHT22;5104;50.720;7.044;2024-01-16T11:42:47;3.50;1.00
10129;DHT22;5104;50.720;7.044;2024-01-16T11:48:21;3.90;99.90
10129;DHT22;5104;50.720;7.044;2024-01-16T11:50:48;3.90;99.90
10129;DHT22;5104;50.720;7.044;2024-01-16T11:53:34;4.10;99.90
10129;DHT22;5104;50.720;7.044;2024-01-16T11:56:31;4.20;99.90
10129;DHT22;5104;50.720;7.044;2024-01-16T11:59:11;4.20;99.90
10129;DHT22;5104;50.720;7.044;2024-01-16T12:01:42;4.10;99.90
10129;DHT22;5104;50.720;7.044;2024-01-16T12:04:14;4.10;99.90
10129;DHT22;5104;50.720;7.044;2024-01-16T12:06:43;3.90;99.90
10129;DHT22;5104;50.720;7.044;2024-01-16T12:09:14;3.70;99.90
10129;DHT22;5104;50.720;7.044;2024-01-16T12:11:41;3.40;99.90
10129;DHT22;5104;50.720;7.044;2024-01-16T12:14:11;3.40;99.90
10129;DHT22;5104;50.720;7.044;2024-01-16T12:16:38;3.30;99.90
10129;DHT22;5104;50.720;7.044;2024-01-16T12:19:05;3.40;99.90
10129;DHT22;5104;50.720;7.044;2024-01-16T12:21:38;3.20;99.90
10129;DHT22;5104;50.720;7.044;2024-01-16T12:24:05;3.20;99.90
10129;DHT22;5104;50.720;7.044;2024-01-16T12:26:32;3.30;99.90
10129;DHT22;5104;50.720;7.044;2024-01-16T12:28:59;3.30;99.90
10129;DHT22;5104;50.720;7.044;2024-01-16T12:31:27;3.10;99.90
10129;DHT22;5104;50.720;7.044;2024-01-16T12:34:04;3.00;99.90
10129;DHT22;5104;50.720;7.044;2024-01-16T12:36:32;2.80;99.90
10129;DHT22;5104;50.720;7.044;2024-01-16T12:39:01;2.70;99.90
10129;DHT22;5104;50.720;7.044;2024-01-16T12:41:30;2.60;99.90
10129;DHT22;5104;50.720;7.044;2024-01-16T12:43:59;2.60;99.90
10129;DHT22;5104;50.720;7.044;2024-01-16T12:46:26;2.60;99.90
10129;DHT22;5104;50.720;7.044;2024-01-16T12:49:00;2.70;99.90
10129;DHT22;5104;50.720;7.044;2024-01-16T12:51:27;2.80;99.90
10129;DHT22;5104;50.720;7.044;2024-01-16T12:56:39;2.90;99.90
10129;DHT22;5104;50.720;7.044;2024-01-16T12:59:09;2.90;99.90
10129;DHT22;5104;50.720;7.044;2024-01-16T13:01:39;3.00;99.90
10129;DHT22;5104;50.720;7.044;2024-01-16T13:04:07;3.00;99.90
10129;DHT22;5104;50.720;7.044;2024-01-16T13:06:35;3.00;99.90
10129;DHT22;5104;50.720;7.044;2024-01-16T13:09:06;3.00;99.90
10129;DHT22;5104;50.720;7.044;2024-01-16T13:11:48;3.00;99.90
10129;DHT22;5104;50.720;7.044;2024-01-16T13:14:15;2.80;99.90
10129;DHT22;5104;50.720;7.044;2024-01-16T13:16:42;2.80;99.90
10129;DHT22;5104;50.720;7.044;2024-01-16T13:19:09;2.70;99.90
10129;DHT22;5104;50.720;7.044;2024-01-16T13:21:37;2.60;99.90
10129;DHT22;5104;50.720;7.044;2024-01-16T13:24:04;2.60;99.90
10129;DHT22;5104;50.720;7.044;2024-01-16T13:26:31;2.60;99.90
10129;DHT22;5104;50.720;7.044;2024-01-16T13:29:00;2.70;99.90
10129;DHT22;5104;50.720;7.044;2024-01-16T13:31:27;2.80;99.90
10129;DHT22;5104;50.720;7.044;2024-01-16T13:33:54;2.70;99.90
10129;DHT22;5104;50.720;7.044;2024-01-16T13:36:22;2.60;99.90
10129;DHT22;5104;50.720;7.044;2024-01-16T13:38:49;2.50;99.90
10129;DHT22;5104;50.720;7.044;2024-01-16T13:41:17;2.50;99.90
10129;DHT22;5104;50.720;7.044;2024-01-16T13:43:44;2.50;99.90
10129;DHT22;5104;50.720;7.044;2024-01-16T13:46:12;2.50;99.90
10129;DHT22;5104;50.720;7.044;2024-01-16T13:48:39;2.50;99.90
10129;DHT22;5104;50.720;7.044;2024-01-16T13:51:06;2.50;99.90
10129;DHT22;5104;50.720;7.044;2024-01-16T13:53:34;2.50;99.90
10129;DHT22;5104;50.720;7.044;2024-01-16T13:56:01;2.50;99.90
10129;DHT22;5104;50.720;7.044;2024-01-16T13:58:28;2.50;99.90
10129;DHT22;5104;50.720;7.044;2024-01-16T14:00:55;2.50;99.90
10129;DHT22;5104;50.720;7.044;2024-01-16T14:03:24;2.40;99.90
10129;DHT22;5104;50.720;7.044;2024-01-16T14:05:51;2.30;99.90
10129;DHT22;5104;50.720;7.044;2024-01-16T14:08:18;2.30;99.90
10129;DHT22;5104;50.720;7.044;2024-01-16T14:10:45;2.30;99.90
10129;DHT22;5104;50.720;7.044;2024-01-16T14:13:13;2.30;99.90
10129;DHT22;5104;50.720;7.044;2024-01-16T14:15:41;2.20;99.90
10129;DHT22;5104;50.720;7.044;2024-01-16T14:18:08;2.20;99.90
10129;DHT22;5104;50.720;7.044;2024-01-16T14:20:37;2.20;99.90
10129;DHT22;5104;50.720;7.044;2024-01-16T14:23:04;2.20;99.90
10129;DHT22;5104;50.720;7.044;2024-01-16T14:25:31;2.30;99.90
10129;DHT22;5104;50.720;7.044;2024-01-16T14:28:00;2.30;99.90
10129;DHT22;5104;50.720;7.044;2024-01-16T14:30:28;2.20;99.90
10129;DHT22;5104;50.720;7.044;2024-01-16T14:32:55;2.20;99.90
10129;DHT22;5104;50.720;7.044;2024-01-16T14:35:23;2.20;99.90
10129;DHT22;5104;50.720;7.044;2024-01-16T14:37:52;2.20;99.90
10129;DHT22;5104;50.720;7.044;2024-01-16T14:40:19;2.20;99.90
10129;DHT22;5104;50.720;7.044;2024-01-16T14:42:51;2.30;99.90
10129;DHT22;5104;50.720;7.044;2024-01-16T14:45:19;2.20;99.90
10129;DHT22;5104;50.720;7.044;2024-01-16T14:47:46;2.20;99.90
10129;DHT22;5104;50.720;7.044;2024-01-16T14:50:14;2.20;99.90
10129;DHT22;5104;50.720;7.044;2024-01-16T14:52:43;2.20;99.90
10129;DHT22;5104;50.720;7.044;2024-01-16T14:55:12;2.20;99.90
10129;DHT22;5104;50.720;7.044;2024-01-16T14:57:39;2.00;99.90
10129;DHT22;5104;50.720;7.044;2024-01-16T15:00:10;1.90;99.90
10129;DHT22;5104;50.720;7.044;2024-01-16T15:02:41;1.90;99.90
10129;DHT22;5104;50.720;7.044;2024-01-16T15:05:08;1.80;99.90
10129;DHT22;5104;50.720;7.044;2024-01-16T15:07:36;1.80;99.90
10129;DHT22;5104;50.720;7.044;2024-01-16T15:10:04;1.70;99.90
10129;DHT22;5104;50.720;7.044;2024-01-16T15:12:35;1.60;99.90
10129;DHT22;5104;50.720;7.044;2024-01-16T15:15:03;1.60;99.90
10129;DHT22;5104;50.720;7.044;2024-01-16T15:17:31;1.50;99.90
10129;DHT22;5104;50.720;7.044;2024-01-16T15:19:58;1.40;99.90
10129;DHT22;5104;50.720;7.044;2024-01-16T15:22:25;1.40;99.90
10129;DHT22;5104;50.720;7.044;2024-01-16T15:24:52;1.30;99.90
10129;DHT22;5104;50.720;7.044;2024-01-16T15:27:19;1.20;99.90
10129;DHT22;5104;50.720;7.044;2024-01-16T15:29:48;1.20;99.90
10129;DHT22;5104;50.720;7.044;2024-01-16T15:32:16;1.10;99.90
10129;DHT22;5104;50.720;7.044;2024-01-16T15:34:43;1.00;1.00
10129;DHT22;5104;50.720;7.044;2024-01-16T15:37:12;1.00;1.00
10129;DHT22;5104;50.720;7.044;2024-01-16T15:39:40;0.90;1.00
10129;DHT22;5104;50.720;7.044;2024-01-16T15:42:11;0.90;1.00
10129;DHT22;5104;50.720;7.044;2024-01-16T15:44:38;0.80;1.00
10129;DHT22;5104;50.720;7.044;2024-01-16T15:47:06;0.70;1.00
10129;DHT22;5104;50.720;7.044;2024-01-16T15:49:33;0.60;1.00
10129;DHT22;5104;50.720;7.044;2024-01-16T15:52:01;0.60;1.00
10129;DHT22;5104;50.720;7.044;2024-01-16T15:54:28;0.50;1.00
10129;DHT22;5104;50.720;7.044;2024-01-16T15:56:58;0.40;1.00
10129;DHT22;5104;50.720;7.044;2024-01-16T15:59:25;0.30;1.00
10129;DHT22;5104;50.720;7.044;2024-01-16T16:01:52;0.30;1.00
10129;DHT22;5104;50.720;7.044;2024-01-16T16:04:20;0.20;1.00
10129;DHT22;5104;50.720;7.044;2024-01-16T16:06:49;0.10;1.00
10129;DHT22;5104;50.720;7.044;2024-01-16T16:09:17;0.10;1.00
10129;DHT22;5104;50.720;7.044;2024-01-16T16:11:44;0.00;45.50
10129;DHT22;5104;50.720;7.044;2024-01-16T16:14:11;-0.10;99.90
10129;DHT22;5104;50.720;7.044;2024-01-16T16:16:39;-0.20;64.80
10129;DHT22;5104;50.720;7.044;2024-01-16T16:19:10;-0.30;18.40
10129;DHT22;5104;50.720;7.044;2024-01-16T16:21:38;-0.40;1.00